»·PEaware :: N282DA KLGB-KMYF

N282DA :: KLGB-KMYF

FLIGHT INFORMATION

Flight Status: Arrived
Operator: Privately registered:
United States
More flights under this callsign
Pilot: Andrew C. (33665)
Aircraft: SOCATA TBM-900
(TBM9)
More flights by this aircraft type
Origin: KLGB Long Beach
United States
Destination: KMYF Montgomery
United States
More flights between these airports :: More routes between these airports
Route: V25 PACIF V208 LAX118 CARDI MZB320 MZB
File this flight plan on PilotEdge
Remarks:
Altitude:
(Current/Filed)
9,000ft
Speed:
(Current/Filed)
290kts
Departed: 21-Feb-21 07:53 PM
Arrived: 21-Feb-21 08:21 PM
Distance/Time
Traveled:
78nm/0:28
Distance/Time
To Go:
Arrived

Flight Plot

Page will automatically refresh every two minutes.


Map Options




Map Legend


Flown Route
Filed Route
Departure Airport
Arrival Airport
Navaid (VOR, NDB)
Fix

Horizontal Profiles

Position Reports

Time Latitude Longitude Heading Altitude Ground
Speed
21-Feb-21 19:22 33.821003 -118.145885 90 45ft 0kts
21-Feb-21 19:23 33.821003 -118.145885 90 45ft 0kts
21-Feb-21 19:24 33.821003 -118.145885 90 45ft 0kts
21-Feb-21 19:25 33.821003 -118.145885 90 45ft 0kts
21-Feb-21 19:26 33.821003 -118.145885 90 45ft 0kts
21-Feb-21 19:27 33.821003 -118.145885 90 45ft 0kts
21-Feb-21 19:28 33.821003 -118.145885 90 45ft 0kts
21-Feb-21 19:29 33.821003 -118.145885 90 45ft 0kts
21-Feb-21 19:30 33.821003 -118.145885 90 45ft 0kts
21-Feb-21 19:31 33.821003 -118.145885 90 45ft 0kts
21-Feb-21 19:32 33.821003 -118.145885 90 45ft 0kts
21-Feb-21 19:33 33.821003 -118.145885 90 45ft 0kts
21-Feb-21 19:34 33.821003 -118.145885 90 45ft 0kts
21-Feb-21 19:35 33.821003 -118.145885 90 45ft 0kts
21-Feb-21 19:36 33.821003 -118.145885 90 45ft 0kts
21-Feb-21 19:37 33.821003 -118.145885 90 45ft 0kts
21-Feb-21 19:38 33.821003 -118.145885 90 45ft 0kts
21-Feb-21 19:39 33.821003 -118.145885 90 45ft 0kts
21-Feb-21 19:40 33.821003 -118.145885 90 45ft 0kts
21-Feb-21 19:41 33.821003 -118.145885 90 45ft 0kts
21-Feb-21 19:42 33.821003 -118.145885 90 45ft 0kts
21-Feb-21 19:43 33.821003 -118.145885 90 45ft 0kts
21-Feb-21 19:44 33.821003 -118.145885 90 45ft 0kts
21-Feb-21 19:45 33.821003 -118.145885 90 45ft 0kts
21-Feb-21 19:46 33.821002 -118.145867 94 45ft 2kts
21-Feb-21 19:47 33.818399 -118.148076 183 51ft 10kts
21-Feb-21 19:48 33.813903 -118.144794 135 41ft 22kts
21-Feb-21 19:49 33.809631 -118.139619 134 36ft 19kts
21-Feb-21 19:50 33.807650 -118.137661 212 31ft 0kts
21-Feb-21 19:51 33.807549 -118.137739 212 30ft 9kts
21-Feb-21 19:52 33.816936 -118.150732 311 267ft 131kts
21-Feb-21 19:53 33.811576 -118.186674 215 2368ft 161kts
21-Feb-21 19:54 33.761502 -118.191375 141 2774ft 231kts
21-Feb-21 19:55 33.714438 -118.144115 143 4401ft 219kts
21-Feb-21 19:56 33.662406 -118.095689 142 4695ft 249kts
21-Feb-21 19:57 33.610549 -118.047572 142 6451ft 221kts
21-Feb-21 19:58 33.562305 -118.002882 143 8444ft 228kts
21-Feb-21 19:59 33.506855 -117.951582 142 8700ft 267kts
21-Feb-21 20:00 33.446897 -117.896210 142 8705ft 275kts
21-Feb-21 20:01 33.386207 -117.840276 143 8734ft 277kts
21-Feb-21 20:02 33.325061 -117.784025 143 8714ft 276kts
21-Feb-21 20:03 33.278030 -117.722204 97 8698ft 219kts
21-Feb-21 20:04 33.270719 -117.647534 102 8714ft 229kts
21-Feb-21 20:05 33.254732 -117.574138 123 8714ft 229kts
21-Feb-21 20:06 33.212681 -117.517147 133 8715ft 229kts
21-Feb-21 20:07 33.168617 -117.462016 134 8714ft 229kts
21-Feb-21 20:08 33.119835 -117.413827 149 8704ft 229kts
21-Feb-21 20:09 33.062536 -117.380687 155 8696ft 228kts
21-Feb-21 20:10 33.004851 -117.348686 155 8696ft 228kts
21-Feb-21 20:11 32.947426 -117.316829 155 8695ft 227kts
21-Feb-21 20:12 32.892140 -117.286199 155 8691ft 210kts
21-Feb-21 20:13 32.844473 -117.259825 155 8679ft 171kts
21-Feb-21 20:14 32.810587 -117.224209 117 7844ft 186kts
21-Feb-21 20:15 32.789909 -117.173986 116 6296ft 140kts
21-Feb-21 20:16 32.780134 -117.132656 71 4052ft 130kts
21-Feb-21 20:17 32.800451 -117.097036 26 2059ft 144kts
21-Feb-21 20:18 32.807237 -117.112012 258 1075ft 103kts
21-Feb-21 20:19 32.817310 -117.142446 292 418ft 69kts
21-Feb-21 20:20 32.818480 -117.144018 175 415ft 10kts

Navigation Log

Ident Type
Flight plan parsing failed, navigation log unavailable